createdAt,value
2018-03-28T00:00:19.585Z,89.28
2018-03-28T00:02:48.095Z,69.28
2018-03-28T00:05:15.922Z,80.82
2018-03-28T00:07:43.698Z,82.22
2018-03-28T00:10:12.229Z,70.82
2018-03-28T00:12:40.059Z,85.43
2018-03-28T00:15:07.873Z,80.30
2018-03-28T00:17:35.625Z,81.32
2018-03-28T00:20:03.435Z,75.37
2018-03-28T00:22:31.183Z,79.35
2018-03-28T00:24:59.716Z,80.97
2018-03-28T00:27:27.522Z,97.55
2018-03-28T00:29:56.031Z,87.60
2018-03-28T00:32:23.798Z,70.43
2018-03-28T00:34:51.628Z,81.93
2018-03-28T00:37:20.161Z,77.43
2018-03-28T00:39:47.920Z,80.43
2018-03-28T00:42:15.753Z,71.47
2018-03-28T00:44:43.524Z,71.85
2018-03-28T00:47:11.271Z,79.00
2018-03-28T00:49:39.076Z,80.18
2018-03-28T00:52:06.869Z,79.22
2018-03-28T00:54:34.693Z,74.12
2018-03-28T00:57:02.523Z,75.65
2018-03-28T00:59:30.288Z,75.35
2018-03-28T01:01:58.068Z,75.30
2018-03-28T01:04:25.888Z,76.87
2018-03-28T01:06:53.641Z,70.60
2018-03-28T01:09:21.435Z,74.90
2018-03-28T01:11:49.302Z,82.05
2018-03-28T01:14:17.060Z,81.35
2018-03-28T01:16:44.811Z,85.10
2018-03-28T01:19:13.381Z,95.15
2018-03-28T01:21:41.935Z,78.07
2018-03-28T01:24:09.930Z,72.35
2018-03-28T01:26:38.505Z,76.90
2018-03-28T01:29:06.251Z,80.62
2018-03-28T01:31:34.005Z,68.93
2018-03-28T01:34:01.797Z,76.30
2018-03-28T01:36:30.330Z,80.22
2018-03-28T01:38:58.090Z,86.45
2018-03-28T01:41:25.891Z,71.55
2018-03-28T01:43:53.642Z,79.75
2018-03-28T01:46:21.401Z,70.65
2018-03-28T01:48:49.206Z,70.10
2018-03-28T01:51:16.965Z,82.40
2018-03-28T01:53:44.718Z,71.60
2018-03-28T01:56:13.292Z,72.35
2018-03-28T01:58:41.813Z,81.40
2018-03-28T02:01:09.579Z,82.20
2018-03-28T02:03:37.389Z,77.75
2018-03-28T02:06:05.173Z,87.47
2018-03-28T02:08:32.921Z,78.57
2018-03-28T02:11:01.485Z,75.87
2018-03-28T02:13:29.237Z,71.35
2018-03-28T02:15:56.985Z,69.75
2018-03-28T02:18:24.784Z,72.93
2018-03-28T02:20:53.298Z,80.53
2018-03-28T02:23:21.064Z,76.30
2018-03-28T02:25:48.864Z,65.97
2018-03-28T02:28:16.625Z,79.82
2018-03-28T02:30:44.376Z,70.50
2018-03-28T02:33:12.179Z,75.15
2018-03-28T02:35:40.703Z,67.80
2018-03-28T02:38:08.465Z,64.68
2018-03-28T02:40:36.271Z,64.22
2018-03-28T02:43:04.029Z,67.20
2018-03-28T02:45:31.780Z,74.85
2018-03-28T02:47:59.606Z,67.40
2018-03-28T02:50:27.356Z,66.60
2018-03-28T02:52:55.118Z,66.10
2018-03-28T02:55:22.922Z,74.53
2018-03-28T02:57:50.670Z,72.57
2018-03-28T03:00:18.418Z,77.20
2018-03-28T03:02:46.243Z,69.07
2018-03-28T03:05:14.757Z,65.40
2018-03-28T03:07:42.503Z,49.90
2018-03-28T03:10:10.303Z,70.07
2018-03-28T03:12:38.085Z,71.12
2018-03-28T03:15:05.841Z,60.55
2018-03-28T03:17:33.642Z,68.18
2018-03-28T03:20:01.391Z,69.78
2018-03-28T03:22:29.189Z,59.95
2018-03-28T03:24:57.006Z,68.65
2018-03-28T03:27:25.546Z,68.03
2018-03-28T03:29:53.286Z,66.87
2018-03-28T03:32:21.081Z,65.65
2018-03-28T03:34:48.890Z,63.05
2018-03-28T03:37:17.468Z,69.30
2018-03-28T03:39:46.027Z,62.10
2018-03-28T03:42:13.773Z,70.93
2018-03-28T03:44:42.290Z,63.13
2018-03-28T03:47:10.852Z,67.22
2018-03-28T03:49:38.600Z,64.40
2018-03-28T03:52:06.341Z,68.78
2018-03-28T03:54:34.132Z,68.28
2018-03-28T03:57:01.874Z,78.57
2018-03-28T03:59:29.623Z,60.63
2018-03-28T04:01:57.426Z,68.78
2018-03-28T04:04:25.172Z,72.55
2018-03-28T04:06:52.955Z,63.53
2018-03-28T04:09:21.540Z,72.12
2018-03-28T04:11:50.052Z,61.60
2018-03-28T04:14:17.807Z,72.37
2018-03-28T04:16:45.629Z,66.15
2018-03-28T04:19:13.377Z,61.55
2018-03-28T04:21:41.137Z,65.45
2018-03-28T04:24:08.933Z,74.35
2018-03-28T04:26:37.450Z,82.22
2018-03-28T04:29:05.218Z,75.68
2018-03-28T04:31:33.012Z,85.90
2018-03-28T04:34:00.769Z,80.03
2018-03-28T04:36:28.525Z,68.95
2018-03-28T04:38:56.339Z,81.97
2018-03-28T04:41:24.137Z,72.82
2018-03-28T04:43:51.880Z,72.00
2018-03-28T04:46:19.707Z,69.53
2018-03-28T04:48:48.233Z,72.60
2018-03-28T04:51:15.990Z,72.40
2018-03-28T04:53:43.787Z,67.40
2018-03-28T04:56:11.540Z,70.65
2018-03-28T04:58:39.286Z,69.00
2018-03-28T05:01:07.102Z,63.35
2018-03-28T05:03:35.620Z,70.80
2018-03-28T05:06:03.382Z,61.47
2018-03-28T05:08:31.177Z,64.32
2018-03-28T05:10:58.937Z,60.97
2018-03-28T05:13:26.698Z,63.15
2018-03-28T05:15:54.530Z,67.68
2018-03-28T05:18:22.296Z,59.75
2018-03-28T05:20:50.039Z,61.90
2018-03-28T05:23:17.836Z,61.83
2018-03-28T05:25:45.577Z,60.38
2018-03-28T05:28:13.321Z,55.50
2018-03-28T05:30:41.126Z,65.78
2018-03-28T05:33:08.885Z,51.28
2018-03-28T05:35:36.633Z,59.38
2018-03-28T05:38:04.451Z,61.30
2018-03-28T05:40:32.964Z,62.88
2018-03-28T05:43:00.733Z,63.30
2018-03-28T05:45:28.532Z,61.13
2018-03-28T05:47:56.281Z,47.80
2018-03-28T05:50:24.046Z,65.05
2018-03-28T05:52:51.905Z,56.30
2018-03-28T05:55:19.655Z,56.70
2018-03-28T05:57:48.203Z,64.30
2018-03-28T06:00:16.010Z,61.30
2018-03-28T06:02:43.762Z,52.72
2018-03-28T06:05:11.507Z,58.22
2018-03-28T06:07:39.700Z,60.72
2018-03-28T06:10:08.224Z,59.97
2018-03-28T06:12:36.024Z,72.35
2018-03-28T06:15:03.869Z,57.70
2018-03-28T06:17:31.609Z,63.42
2018-03-28T06:20:00.134Z,58.65
2018-03-28T06:22:27.962Z,51.75
2018-03-28T06:24:55.737Z,51.45
2018-03-28T06:27:23.482Z,57.67
2018-03-28T06:29:51.312Z,70.10
2018-03-28T06:32:19.068Z,58.22
2018-03-28T06:34:46.845Z,60.70
2018-03-28T06:37:15.414Z,54.78
2018-03-28T06:39:43.170Z,54.50
2018-03-28T06:42:10.930Z,54.95
2018-03-28T06:44:41.204Z,55.85
2018-03-28T06:47:08.956Z,62.67
2018-03-28T06:49:36.707Z,69.65
2018-03-28T06:52:05.638Z,68.03
2018-03-28T06:54:33.395Z,67.82
2018-03-28T06:57:01.154Z,77.07
2018-03-28T06:59:29.013Z,69.15
2018-03-28T07:01:56.811Z,66.70
2018-03-28T07:04:24.626Z,69.72
2018-03-28T07:06:52.474Z,69.70
2018-03-28T07:09:20.253Z,78.78
2018-03-28T07:11:48.038Z,67.50
2018-03-28T07:14:15.914Z,65.37
2018-03-28T07:16:43.674Z,77.43
2018-03-28T07:19:12.252Z,69.90
2018-03-28T07:21:40.058Z,68.68
2018-03-28T07:24:08.703Z,71.75
2018-03-28T07:26:36.500Z,71.03
2018-03-28T07:29:05.114Z,69.68
2018-03-28T07:31:32.967Z,71.12
2018-03-28T07:34:00.737Z,66.55
2018-03-28T07:36:28.566Z,78.53
2018-03-28T07:38:57.099Z,76.95
2018-03-28T07:41:24.914Z,74.90
2018-03-28T07:43:53.515Z,69.72
2018-03-28T07:46:21.326Z,74.15
2018-03-28T07:48:49.127Z,76.45
2018-03-28T07:51:17.010Z,74.30
2018-03-28T07:53:44.802Z,80.05
2018-03-28T07:56:12.617Z,74.00
2018-03-28T07:58:41.174Z,79.97
2018-03-28T08:01:08.937Z,77.97
2018-03-28T08:03:36.685Z,66.90
2018-03-28T08:06:04.482Z,77.80
2018-03-28T08:08:33.006Z,92.15
2018-03-28T08:11:00.760Z,84.80
2018-03-28T08:13:28.563Z,75.95
2018-03-28T08:15:56.362Z,81.53
2018-03-28T08:18:24.116Z,67.25
2018-03-28T08:20:51.927Z,88.40
2018-03-28T08:23:19.706Z,97.82
2018-03-28T08:25:47.471Z,95.18
2018-03-28T08:28:15.279Z,90.90
2018-03-28T08:30:43.044Z,97.10
2018-03-28T08:33:10.808Z,99.30
2018-03-28T08:35:38.618Z,103.75
2018-03-28T08:38:06.370Z,98.87
2018-03-28T08:40:34.137Z,95.10
2018-03-28T08:43:01.951Z,98.30
2018-03-28T08:45:29.714Z,95.45
2018-03-28T08:47:57.478Z,96.18
2018-03-28T08:50:25.300Z,75.78
2018-03-28T08:52:53.065Z,85.38
2018-03-28T08:55:20.817Z,80.43
2018-03-28T08:57:49.567Z,70.62
2018-03-28T09:00:18.118Z,71.15
2018-03-28T09:02:45.916Z,81.47
2018-03-28T09:05:13.755Z,74.37
2018-03-28T09:07:41.526Z,80.72
2018-03-28T09:10:09.288Z,75.90
2018-03-28T09:12:37.128Z,91.30
2018-03-28T09:15:06.083Z,91.87
2018-03-28T09:17:33.828Z,89.53
2018-03-28T09:20:02.406Z,89.22
2018-03-28T09:22:30.160Z,83.32
2018-03-28T09:24:57.923Z,85.68
2018-03-28T09:27:25.750Z,77.15
2018-03-28T09:29:54.270Z,74.45
2018-03-28T09:32:22.021Z,70.82
2018-03-28T09:34:49.844Z,89.10
2018-03-28T09:37:18.355Z,76.62
2018-03-28T09:39:46.126Z,80.68
2018-03-28T09:42:13.948Z,75.80
2018-03-28T09:44:42.473Z,80.87
2018-03-28T09:47:10.220Z,83.55
2018-03-28T09:49:38.030Z,86.43
2018-03-28T09:52:05.797Z,82.75
2018-03-28T09:54:33.548Z,84.13
2018-03-28T09:57:01.390Z,92.62
2018-03-28T09:59:29.166Z,78.72
2018-03-28T10:01:58.831Z,77.50
2018-03-28T10:04:27.545Z,82.37
2018-03-28T10:06:55.307Z,93.50
2018-03-28T10:09:23.821Z,81.85
2018-03-28T10:11:51.628Z,86.12
2018-03-28T10:14:19.374Z,86.12
2018-03-28T10:16:47.138Z,79.53
2018-03-28T10:19:14.938Z,83.45
2018-03-28T10:21:42.697Z,88.20
2018-03-28T10:24:10.454Z,81.60
2018-03-28T10:26:38.253Z,90.38
2018-03-28T10:29:06.005Z,87.88
2018-03-28T10:31:33.782Z,88.97
2018-03-28T10:34:01.594Z,81.80
2018-03-28T10:36:29.368Z,83.75
2018-03-28T10:38:57.122Z,90.53
2018-03-28T10:41:24.939Z,83.15
2018-03-28T10:43:53.456Z,82.25
2018-03-28T10:46:21.228Z,93.30
2018-03-28T10:48:49.043Z,76.35
2018-03-28T10:51:17.572Z,82.97
2018-03-28T10:53:46.112Z,75.35
2018-03-28T10:56:14.712Z,80.45
2018-03-28T10:58:42.473Z,78.15
2018-03-28T11:01:10.218Z,78.03
2018-03-28T11:03:38.779Z,80.57
2018-03-28T11:06:06.551Z,92.88
2018-03-28T11:08:35.065Z,88.65
2018-03-28T11:11:02.865Z,75.00
2018-03-28T11:13:30.618Z,75.95
2018-03-28T11:15:58.376Z,74.20
2018-03-28T11:18:26.201Z,75.05
2018-03-28T11:20:53.973Z,69.95
2018-03-28T11:23:21.740Z,77.35
2018-03-28T11:25:49.566Z,67.37
2018-03-28T11:28:18.087Z,64.85
2018-03-28T11:30:45.835Z,66.32
2018-03-28T11:33:13.649Z,57.22
2018-03-28T11:35:41.413Z,55.85
2018-03-28T11:38:09.208Z,60.47
2018-03-28T11:40:37.009Z,55.55
2018-03-28T11:43:04.773Z,55.00
2018-03-28T11:45:32.521Z,58.85
2018-03-28T11:48:00.328Z,57.47
2018-03-28T11:50:28.086Z,55.95
2018-03-28T11:52:55.868Z,46.83
2018-03-28T11:55:23.697Z,48.85
2018-03-28T11:57:51.447Z,47.13
2018-03-28T12:00:22.064Z,48.78
2018-03-28T12:02:49.883Z,50.85
2018-03-28T12:05:18.426Z,58.63
2018-03-28T12:07:46.191Z,50.97
2018-03-28T12:10:13.996Z,51.85
2018-03-28T12:12:42.501Z,47.38
2018-03-28T12:15:10.256Z,52.13
2018-03-28T12:17:38.068Z,45.28
2018-03-28T12:20:05.819Z,50.78
2018-03-28T12:22:33.567Z,43.50
2018-03-28T12:25:01.381Z,42.47
2018-03-28T12:27:29.179Z,42.60
2018-03-28T12:29:56.933Z,39.22
2018-03-28T12:32:24.766Z,38.83
2018-03-28T12:34:53.322Z,45.53
2018-03-28T12:37:21.082Z,42.10
2018-03-28T12:39:49.678Z,40.88
2018-03-28T12:42:17.449Z,45.75
2018-03-28T12:44:45.194Z,41.60
2018-03-28T12:47:13.049Z,44.97
2018-03-28T12:49:40.856Z,40.40
2018-03-28T12:52:08.618Z,34.05
2018-03-28T12:54:36.469Z,47.10
2018-03-28T12:57:04.992Z,33.08
2018-03-28T12:59:32.765Z,35.80
2018-03-28T13:02:00.587Z,33.22
2018-03-28T13:04:28.338Z,39.17
2018-03-28T13:06:56.850Z,41.53
2018-03-28T13:09:24.670Z,39.72
2018-03-28T13:11:53.197Z,45.65
2018-03-28T13:14:21.728Z,43.85
2018-03-28T13:16:49.555Z,36.50
2018-03-28T13:19:17.316Z,36.58
2018-03-28T13:21:45.067Z,39.65
2018-03-28T13:24:12.912Z,41.15
2018-03-28T13:26:40.673Z,42.65
2018-03-28T13:29:08.413Z,49.35
2018-03-28T13:31:37.016Z,41.08
2018-03-28T13:34:04.843Z,44.30
2018-03-28T13:36:33.370Z,46.10
2018-03-28T13:39:01.215Z,41.45
2018-03-28T13:41:28.958Z,43.47
2018-03-28T13:43:57.475Z,44.97
2018-03-28T13:46:25.270Z,40.63
2018-03-28T13:48:53.030Z,42.55
2018-03-28T13:51:20.782Z,38.05
2018-03-28T13:53:48.588Z,45.83
2018-03-28T13:56:16.350Z,47.53
2018-03-28T13:58:44.114Z,46.65
2018-03-28T14:01:11.912Z,55.05
2018-03-28T14:03:39.655Z,40.72
2018-03-28T14:06:07.415Z,45.35
2018-03-28T14:08:35.224Z,40.70
2018-03-28T14:11:02.982Z,42.00
2018-03-28T14:13:36.545Z,39.45
2018-03-28T14:16:04.310Z,43.20
2018-03-28T14:18:32.082Z,41.88
2018-03-28T14:20:59.894Z,43.20
2018-03-28T14:23:28.410Z,39.65
2018-03-28T14:25:56.176Z,47.85
2018-03-28T14:28:23.988Z,42.80
2018-03-28T14:30:51.789Z,42.47
2018-03-28T14:33:19.590Z,43.83
2018-03-28T14:35:47.415Z,38.22
2018-03-28T14:38:15.186Z,41.33
2018-03-28T14:40:42.942Z,51.20
2018-03-28T14:43:10.740Z,41.33
2018-03-28T14:45:38.507Z,45.72
2018-03-28T14:48:06.283Z,45.15
2018-03-28T14:50:34.868Z,40.85
2018-03-28T14:53:02.713Z,43.40
2018-03-28T14:55:30.463Z,40.97
2018-03-28T14:57:58.254Z,41.40
2018-03-28T15:00:26.036Z,50.22
2018-03-28T15:02:54.559Z,44.35
2018-03-28T15:05:22.399Z,52.72
2018-03-28T15:07:50.161Z,44.35
2018-03-28T15:10:17.940Z,47.35
2018-03-28T15:12:45.747Z,44.40
2018-03-28T15:15:14.275Z,48.60
2018-03-28T15:17:42.040Z,46.50
2018-03-28T15:20:09.834Z,45.58
2018-03-28T15:22:37.577Z,50.03
2018-03-28T15:25:05.337Z,53.22
2018-03-28T15:27:33.141Z,47.53
2018-03-28T15:30:00.906Z,50.92
2018-03-28T15:32:29.409Z,46.65
2018-03-28T15:34:57.208Z,50.50
2018-03-28T15:37:25.745Z,54.92
2018-03-28T15:39:54.268Z,48.45
2018-03-28T15:42:22.069Z,51.33
2018-03-28T15:44:50.590Z,44.13
2018-03-28T15:47:18.341Z,49.20
2018-03-28T15:49:46.141Z,47.53
2018-03-28T15:52:13.898Z,56.72
2018-03-28T15:54:41.653Z,41.58
2018-03-28T15:57:09.451Z,50.20
2018-03-28T15:59:37.215Z,52.65
2018-03-28T16:02:04.990Z,44.78
2018-03-28T16:04:33.571Z,45.05
2018-03-28T16:07:02.134Z,50.67
2018-03-28T16:09:29.886Z,47.38
2018-03-28T16:11:57.690Z,48.70
2018-03-28T16:14:25.430Z,46.55
2018-03-28T16:16:53.233Z,46.63
2018-03-28T16:19:21.039Z,47.17
2018-03-28T16:21:48.796Z,47.62
2018-03-28T16:24:16.553Z,40.65
2018-03-28T16:26:44.367Z,42.30
2018-03-28T16:29:12.125Z,44.63
2018-03-28T16:31:39.880Z,52.03
2018-03-28T16:34:08.448Z,46.63
2018-03-28T16:36:36.984Z,51.33
2018-03-28T16:39:04.811Z,47.10
2018-03-28T16:41:32.669Z,54.75
2018-03-28T16:44:01.234Z,46.05
2018-03-28T16:46:29.797Z,50.92
2018-03-28T16:48:57.622Z,50.50
2018-03-28T16:51:25.414Z,58.85
2018-03-28T16:53:53.192Z,54.33
2018-03-28T16:56:21.819Z,52.70
2018-03-28T16:58:49.580Z,63.10
2018-03-28T17:01:17.368Z,56.53
2018-03-28T17:03:46.040Z,54.50
2018-03-28T17:06:13.927Z,64.03
2018-03-28T17:08:41.719Z,46.37
2018-03-28T17:11:10.302Z,62.17
2018-03-28T17:13:38.835Z,63.78
2018-03-28T17:16:06.602Z,59.55
2018-03-28T17:18:34.434Z,58.80
2018-03-28T17:21:02.195Z,59.45
2018-03-28T17:23:30.043Z,57.05
2018-03-28T17:25:57.920Z,58.92
2018-03-28T17:28:25.703Z,57.40
2018-03-28T17:30:53.481Z,65.62
2018-03-28T17:33:21.492Z,57.17
2018-03-28T17:35:50.085Z,63.80
2018-03-28T17:38:17.984Z,59.83
2018-03-28T17:40:45.862Z,62.33
2018-03-28T17:43:13.659Z,63.63
2018-03-28T17:45:42.201Z,63.03
2018-03-28T17:48:10.034Z,62.13
2018-03-28T17:50:37.780Z,66.32
2018-03-28T17:53:06.468Z,64.75
2018-03-28T17:55:34.301Z,65.35
2018-03-28T17:58:03.182Z,64.40
2018-03-28T18:00:31.822Z,67.93
2018-03-28T18:02:59.638Z,64.50
2018-03-28T18:05:27.412Z,61.33
2018-03-28T18:07:55.222Z,64.10
2018-03-28T18:10:23.068Z,69.95
2018-03-28T18:12:52.048Z,66.40
2018-03-28T18:15:20.047Z,70.93
2018-03-28T18:17:47.926Z,65.35
2018-03-28T18:20:15.713Z,60.17
2018-03-28T18:22:43.507Z,76.07
2018-03-28T18:25:11.343Z,64.50
2018-03-28T18:27:40.268Z,70.43
2018-03-28T18:30:09.317Z,68.43
2018-03-28T18:32:37.214Z,65.43
2018-03-28T18:35:04.987Z,62.88
2018-03-28T18:37:32.801Z,61.83
2018-03-28T18:40:00.625Z,61.97
2018-03-28T18:42:28.401Z,59.47
2018-03-28T18:44:56.154Z,62.53
2018-03-28T18:47:23.990Z,61.40
2018-03-28T18:49:51.745Z,59.28
2018-03-28T18:52:20.011Z,62.00
2018-03-28T18:54:48.717Z,66.55
2018-03-28T18:57:16.485Z,67.35
2018-03-28T18:59:44.234Z,56.17
2018-03-28T19:02:12.037Z,63.92
2018-03-28T19:04:39.790Z,64.57
2018-03-28T19:07:07.545Z,66.22
2018-03-28T19:09:35.405Z,58.42
2018-03-28T19:12:03.163Z,59.22
2018-03-28T19:14:30.925Z,60.05
2018-03-28T19:16:58.736Z,63.20
2018-03-28T19:19:26.706Z,59.80
2018-03-28T19:21:55.226Z,57.90
2018-03-28T19:24:23.034Z,57.62
2018-03-28T19:26:50.788Z,56.50
2018-03-28T19:29:18.549Z,58.17
2018-03-28T19:31:46.361Z,49.55
2018-03-28T19:34:14.098Z,58.70
2018-03-28T19:36:42.619Z,54.88
2018-03-28T19:39:11.891Z,57.15
2018-03-28T19:41:40.447Z,54.42
2018-03-28T19:44:08.244Z,59.05
2018-03-28T19:46:36.061Z,51.28
2018-03-28T19:49:03.834Z,57.20
2018-03-28T19:51:32.358Z,55.00
2018-03-28T19:54:00.174Z,57.15
2018-03-28T19:56:28.100Z,61.78
2018-03-28T19:58:55.896Z,56.28
2018-03-28T20:01:23.722Z,57.55
2018-03-28T20:03:51.516Z,55.10
2018-03-28T20:06:19.276Z,53.85
2018-03-28T20:08:47.085Z,53.78
2018-03-28T20:11:14.861Z,52.00
2018-03-28T20:13:42.643Z,52.33
2018-03-28T20:16:10.458Z,52.13
2018-03-28T20:18:38.985Z,62.13
2018-03-28T20:21:06.725Z,54.80
2018-03-28T20:23:34.523Z,57.28
2018-03-28T20:26:02.304Z,61.55
2018-03-28T20:28:30.060Z,53.60
2018-03-28T20:30:57.873Z,53.55
2018-03-28T20:33:25.630Z,51.88
2018-03-28T20:35:53.385Z,52.05
2018-03-28T20:38:21.190Z,46.17
2018-03-28T20:40:48.954Z,49.45
2018-03-28T20:43:16.712Z,51.33
2018-03-28T20:45:44.690Z,49.63
2018-03-28T20:48:12.480Z,42.75
2018-03-28T20:50:41.004Z,57.35
2018-03-28T20:53:08.826Z,52.25
2018-03-28T20:55:37.338Z,57.25
2018-03-28T20:58:05.105Z,54.83
2018-03-28T21:00:32.952Z,56.13
2018-03-28T21:03:00.781Z,55.05
2018-03-28T21:05:28.570Z,51.58
2018-03-28T21:07:56.527Z,48.08
2018-03-28T21:10:24.352Z,52.22
2018-03-28T21:12:52.132Z,58.80
2018-03-28T21:15:19.950Z,57.40
2018-03-28T21:17:47.729Z,60.45
2018-03-28T21:20:15.497Z,54.10
2018-03-28T21:22:43.327Z,57.92
2018-03-28T21:25:11.165Z,52.60
2018-03-28T21:27:40.942Z,57.53
2018-03-28T21:30:08.752Z,53.70
2018-03-28T21:32:36.573Z,57.67
2018-03-28T21:35:04.334Z,58.75
2018-03-28T21:37:32.150Z,57.72
2018-03-28T21:39:59.900Z,61.33
2018-03-28T21:42:27.688Z,60.60
2018-03-28T21:44:55.577Z,59.78
2018-03-28T21:47:23.348Z,64.85
2018-03-28T21:49:51.217Z,70.00
2018-03-28T21:52:19.022Z,70.97
2018-03-28T21:54:46.833Z,74.28
2018-03-28T21:57:14.668Z,61.20
2018-03-28T21:59:43.668Z,67.62
2018-03-28T22:02:11.430Z,69.40
2018-03-28T22:04:39.211Z,69.43
2018-03-28T22:07:07.123Z,69.97
2018-03-28T22:09:34.877Z,72.03
2018-03-28T22:12:02.816Z,70.70
2018-03-28T22:14:31.410Z,67.45
2018-03-28T22:16:59.242Z,77.35
2018-03-28T22:19:27.047Z,72.43
2018-03-28T22:21:54.874Z,78.40
2018-03-28T22:24:22.644Z,86.22
2018-03-28T22:26:50.409Z,76.85
2018-03-28T22:29:18.204Z,77.82
2018-03-28T22:31:45.952Z,78.50
2018-03-28T22:34:14.502Z,84.32
2018-03-28T22:36:42.317Z,81.75
2018-03-28T22:39:10.072Z,85.43
2018-03-28T22:41:37.846Z,75.72
2018-03-28T22:44:05.652Z,90.45
2018-03-28T22:46:33.401Z,79.47
2018-03-28T22:49:01.198Z,83.80
2018-03-28T22:51:29.006Z,81.00
2018-03-28T22:53:56.762Z,87.35
2018-03-28T22:56:24.515Z,102.15
2018-03-28T22:58:52.344Z,104.93
2018-03-28T23:01:20.101Z,104.03
2018-03-28T23:03:47.885Z,101.55
2018-03-28T23:06:16.458Z,87.55
2018-03-28T23:08:44.976Z,97.97
2018-03-28T23:11:12.726Z,92.47
2018-03-28T23:13:40.558Z,93.10
2018-03-28T23:16:09.093Z,83.10
2018-03-28T23:18:36.851Z,82.55
2018-03-28T23:21:04.667Z,85.07
2018-03-28T23:23:33.179Z,81.55
2018-03-28T23:26:00.927Z,87.35
2018-03-28T23:28:28.745Z,80.40
2018-03-28T23:30:56.498Z,79.28
2018-03-28T23:33:24.244Z,77.62
2018-03-28T23:35:52.902Z,81.30
2018-03-28T23:38:20.643Z,69.95
2018-03-28T23:40:49.158Z,76.93
2018-03-28T23:43:16.973Z,84.25
2018-03-28T23:45:45.489Z,77.28
2018-03-28T23:48:13.224Z,73.35
2018-03-28T23:50:41.788Z,83.07
2018-03-28T23:53:09.543Z,80.20
2018-03-28T23:55:37.307Z,78.25
2018-03-28T23:58:05.105Z,81.30
